sensor_id;sensor_type;location;lat;lon;timestamp;P1;durP1;ratioP1;P2;durP2;ratioP2
49948;SDS011;35840;45.982;8.890;2023-01-24T00:00:37;11.00;;;4.95;;
49948;SDS011;35840;45.982;8.890;2023-01-24T00:03:04;7.43;;;4.72;;
49948;SDS011;35840;45.982;8.890;2023-01-24T00:05:34;8.93;;;4.93;;
49948;SDS011;35840;45.982;8.890;2023-01-24T00:08:01;7.43;;;4.75;;
49948;SDS011;35840;45.982;8.890;2023-01-24T00:10:28;10.20;;;4.88;;
49948;SDS011;35840;45.982;8.890;2023-01-24T00:12:55;8.30;;;5.28;;
49948;SDS011;35840;45.982;8.890;2023-01-24T00:15:22;8.40;;;4.88;;
49948;SDS011;35840;45.982;8.890;2023-01-24T00:17:49;10.57;;;6.35;;
49948;SDS011;35840;45.982;8.890;2023-01-24T00:20:16;10.43;;;5.60;;
49948;SDS011;35840;45.982;8.890;2023-01-24T00:22:43;12.38;;;5.07;;
49948;SDS011;35840;45.982;8.890;2023-01-24T00:25:09;8.18;;;5.28;;
49948;SDS011;35840;45.982;8.890;2023-01-24T00:27:36;8.02;;;4.75;;
49948;SDS011;35840;45.982;8.890;2023-01-24T00:30:04;9.13;;;4.90;;
49948;SDS011;35840;45.982;8.890;2023-01-24T00:32:32;9.40;;;4.63;;
49948;SDS011;35840;45.982;8.890;2023-01-24T00:34:59;10.63;;;6.22;;
49948;SDS011;35840;45.982;8.890;2023-01-24T00:37:26;12.90;;;5.47;;
49948;SDS011;35840;45.982;8.890;2023-01-24T00:39:52;9.13;;;5.25;;
49948;SDS011;35840;45.982;8.890;2023-01-24T00:42:19;9.00;;;5.13;;
49948;SDS011;35840;45.982;8.890;2023-01-24T00:44:46;7.57;;;4.78;;
49948;SDS011;35840;45.982;8.890;2023-01-24T00:47:13;9.25;;;4.93;;
49948;SDS011;35840;45.982;8.890;2023-01-24T00:49:42;8.80;;;4.47;;
49948;SDS011;35840;45.982;8.890;2023-01-24T00:52:09;11.98;;;5.95;;
49948;SDS011;35840;45.982;8.890;2023-01-24T00:54:36;7.47;;;4.93;;
49948;SDS011;35840;45.982;8.890;2023-01-24T00:57:03;8.73;;;5.28;;
49948;SDS011;35840;45.982;8.890;2023-01-24T00:59:29;7.22;;;4.53;;
49948;SDS011;35840;45.982;8.890;2023-01-24T01:01:56;8.90;;;5.00;;
49948;SDS011;35840;45.982;8.890;2023-01-24T01:04:25;7.93;;;4.90;;
49948;SDS011;35840;45.982;8.890;2023-01-24T01:06:53;10.27;;;6.00;;
49948;SDS011;35840;45.982;8.890;2023-01-24T01:09:19;9.93;;;5.55;;
49948;SDS011;35840;45.982;8.890;2023-01-24T01:11:46;8.85;;;5.13;;
49948;SDS011;35840;45.982;8.890;2023-01-24T01:14:13;11.30;;;4.95;;
49948;SDS011;35840;45.982;8.890;2023-01-24T01:16:40;7.40;;;4.20;;
49948;SDS011;35840;45.982;8.890;2023-01-24T01:19:08;8.35;;;4.95;;
49948;SDS011;35840;45.982;8.890;2023-01-24T01:21:35;7.80;;;4.82;;
49948;SDS011;35840;45.982;8.890;2023-01-24T01:24:02;6.95;;;4.13;;
49948;SDS011;35840;45.982;8.890;2023-01-24T01:26:29;7.57;;;4.18;;
49948;SDS011;35840;45.982;8.890;2023-01-24T01:28:55;7.53;;;4.50;;
49948;SDS011;35840;45.982;8.890;2023-01-24T01:31:22;4.97;;;4.13;;
49948;SDS011;35840;45.982;8.890;2023-01-24T01:33:49;6.63;;;3.72;;
49948;SDS011;35840;45.982;8.890;2023-01-24T01:36:16;6.43;;;3.53;;
49948;SDS011;35840;45.982;8.890;2023-01-24T01:38:42;5.57;;;3.30;;
49948;SDS011;35840;45.982;8.890;2023-01-24T01:41:13;5.70;;;3.70;;
49948;SDS011;35840;45.982;8.890;2023-01-24T01:43:40;7.70;;;4.35;;
49948;SDS011;35840;45.982;8.890;2023-01-24T01:46:28;7.47;;;4.32;;
49948;SDS011;35840;45.982;8.890;2023-01-24T01:49:03;6.68;;;3.25;;
49948;SDS011;35840;45.982;8.890;2023-01-24T01:51:35;5.95;;;3.97;;
49948;SDS011;35840;45.982;8.890;2023-01-24T01:56:46;6.53;;;4.78;;
49948;SDS011;35840;45.982;8.890;2023-01-24T01:59:26;6.75;;;4.35;;
49948;SDS011;35840;45.982;8.890;2023-01-24T02:01:58;5.40;;;3.85;;
49948;SDS011;35840;45.982;8.890;2023-01-24T02:04:28;6.63;;;4.25;;
49948;SDS011;35840;45.982;8.890;2023-01-24T02:09:56;8.50;;;5.00;;
49948;SDS011;35840;45.982;8.890;2023-01-24T02:12:25;8.15;;;5.28;;
49948;SDS011;35840;45.982;8.890;2023-01-24T02:14:57;11.00;;;6.63;;
49948;SDS011;35840;45.982;8.890;2023-01-24T02:17:47;9.65;;;6.28;;
49948;SDS011;35840;45.982;8.890;2023-01-24T02:28:16;10.45;;;5.88;;
49948;SDS011;35840;45.982;8.890;2023-01-24T02:30:44;7.60;;;5.28;;
49948;SDS011;35840;45.982;8.890;2023-01-24T02:33:15;9.30;;;5.00;;
49948;SDS011;35840;45.982;8.890;2023-01-24T02:35:44;6.45;;;3.38;;
49948;SDS011;35840;45.982;8.890;2023-01-24T02:38:27;6.75;;;3.80;;
49948;SDS011;35840;45.982;8.890;2023-01-24T02:40:56;6.50;;;3.40;;
49948;SDS011;35840;45.982;8.890;2023-01-24T02:43:34;6.95;;;3.83;;
49948;SDS011;35840;45.982;8.890;2023-01-24T02:46:05;8.05;;;3.75;;
49948;SDS011;35840;45.982;8.890;2023-01-24T02:48:32;6.13;;;3.63;;
49948;SDS011;35840;45.982;8.890;2023-01-24T02:50:58;6.72;;;4.30;;
49948;SDS011;35840;45.982;8.890;2023-01-24T02:53:44;5.95;;;3.65;;
49948;SDS011;35840;45.982;8.890;2023-01-24T02:56:11;5.47;;;3.47;;
49948;SDS011;35840;45.982;8.890;2023-01-24T02:58:58;12.18;;;4.13;;
49948;SDS011;35840;45.982;8.890;2023-01-24T03:01:27;5.38;;;3.20;;
49948;SDS011;35840;45.982;8.890;2023-01-24T03:03:56;5.20;;;3.42;;
49948;SDS011;35840;45.982;8.890;2023-01-24T03:06:24;6.72;;;3.50;;
49948;SDS011;35840;45.982;8.890;2023-01-24T03:08:52;6.35;;;3.70;;
49948;SDS011;35840;45.982;8.890;2023-01-24T03:11:29;5.97;;;3.83;;
49948;SDS011;35840;45.982;8.890;2023-01-24T03:13:56;5.68;;;4.20;;
49948;SDS011;35840;45.982;8.890;2023-01-24T03:16:41;6.05;;;2.95;;
49948;SDS011;35840;45.982;8.890;2023-01-24T03:19:28;8.10;;;3.42;;
49948;SDS011;35840;45.982;8.890;2023-01-24T03:22:13;7.07;;;3.50;;
49948;SDS011;35840;45.982;8.890;2023-01-24T03:24:58;4.13;;;3.15;;
49948;SDS011;35840;45.982;8.890;2023-01-24T03:27:44;3.95;;;2.90;;
49948;SDS011;35840;45.982;8.890;2023-01-24T03:30:32;4.70;;;3.30;;
49948;SDS011;35840;45.982;8.890;2023-01-24T03:33:17;4.78;;;3.25;;
49948;SDS011;35840;45.982;8.890;2023-01-24T03:36:05;4.60;;;3.03;;
49948;SDS011;35840;45.982;8.890;2023-01-24T03:38:34;5.25;;;3.92;;
49948;SDS011;35840;45.982;8.890;2023-01-24T03:41:22;11.20;;;4.57;;
49948;SDS011;35840;45.982;8.890;2023-01-24T03:43:49;12.45;;;5.07;;
49948;SDS011;35840;45.982;8.890;2023-01-24T03:46:15;6.60;;;4.43;;
49948;SDS011;35840;45.982;8.890;2023-01-24T03:48:47;10.82;;;5.22;;
49948;SDS011;35840;45.982;8.890;2023-01-24T03:51:14;10.88;;;4.60;;
49948;SDS011;35840;45.982;8.890;2023-01-24T03:54:00;6.18;;;4.03;;
49948;SDS011;35840;45.982;8.890;2023-01-24T03:56:35;8.43;;;4.45;;
49948;SDS011;35840;45.982;8.890;2023-01-24T03:59:03;9.13;;;5.35;;
49948;SDS011;35840;45.982;8.890;2023-01-24T04:01:33;10.20;;;4.50;;
49948;SDS011;35840;45.982;8.890;2023-01-24T04:04:07;6.15;;;4.35;;
49948;SDS011;35840;45.982;8.890;2023-01-24T04:06:34;7.13;;;4.22;;
49948;SDS011;35840;45.982;8.890;2023-01-24T04:09:04;6.32;;;4.35;;
49948;SDS011;35840;45.982;8.890;2023-01-24T04:11:33;7.63;;;4.30;;
49948;SDS011;35840;45.982;8.890;2023-01-24T04:14:07;7.18;;;4.93;;
49948;SDS011;35840;45.982;8.890;2023-01-24T04:16:38;6.25;;;4.30;;
49948;SDS011;35840;45.982;8.890;2023-01-24T04:19:21;6.35;;;3.78;;
49948;SDS011;35840;45.982;8.890;2023-01-24T04:21:48;6.43;;;3.80;;
49948;SDS011;35840;45.982;8.890;2023-01-24T04:24:14;6.75;;;3.63;;
49948;SDS011;35840;45.982;8.890;2023-01-24T04:26:43;8.10;;;4.85;;
49948;SDS011;35840;45.982;8.890;2023-01-24T04:29:16;6.68;;;4.47;;
49948;SDS011;35840;45.982;8.890;2023-01-24T04:31:46;7.75;;;4.53;;
49948;SDS011;35840;45.982;8.890;2023-01-24T04:34:36;6.25;;;3.60;;
49948;SDS011;35840;45.982;8.890;2023-01-24T04:37:07;6.82;;;3.92;;
49948;SDS011;35840;45.982;8.890;2023-01-24T04:39:34;9.13;;;4.57;;
49948;SDS011;35840;45.982;8.890;2023-01-24T04:42:09;5.45;;;3.35;;
49948;SDS011;35840;45.982;8.890;2023-01-24T04:44:37;4.55;;;3.47;;
49948;SDS011;35840;45.982;8.890;2023-01-24T04:47:05;5.32;;;3.50;;
49948;SDS011;35840;45.982;8.890;2023-01-24T04:49:31;6.22;;;3.78;;
49948;SDS011;35840;45.982;8.890;2023-01-24T04:51:58;5.82;;;3.90;;
49948;SDS011;35840;45.982;8.890;2023-01-24T04:54:33;5.72;;;3.70;;
49948;SDS011;35840;45.982;8.890;2023-01-24T04:57:00;5.03;;;3.58;;
49948;SDS011;35840;45.982;8.890;2023-01-24T04:59:27;4.85;;;3.58;;
49948;SDS011;35840;45.982;8.890;2023-01-24T05:01:54;7.05;;;3.80;;
49948;SDS011;35840;45.982;8.890;2023-01-24T05:04:50;6.78;;;4.57;;
49948;SDS011;35840;45.982;8.890;2023-01-24T05:07:17;6.22;;;3.45;;
49948;SDS011;35840;45.982;8.890;2023-01-24T05:09:49;6.45;;;4.38;;
49948;SDS011;35840;45.982;8.890;2023-01-24T05:12:16;6.07;;;4.13;;
49948;SDS011;35840;45.982;8.890;2023-01-24T05:14:43;4.95;;;3.63;;
49948;SDS011;35840;45.982;8.890;2023-01-24T05:17:10;9.23;;;4.30;;
49948;SDS011;35840;45.982;8.890;2023-01-24T05:19:37;6.53;;;4.45;;
49948;SDS011;35840;45.982;8.890;2023-01-24T05:22:04;7.88;;;4.10;;
49948;SDS011;35840;45.982;8.890;2023-01-24T05:24:36;7.70;;;5.32;;
49948;SDS011;35840;45.982;8.890;2023-01-24T05:27:04;8.73;;;4.82;;
49948;SDS011;35840;45.982;8.890;2023-01-24T05:29:33;7.15;;;4.28;;
49948;SDS011;35840;45.982;8.890;2023-01-24T05:32:02;7.57;;;4.18;;
49948;SDS011;35840;45.982;8.890;2023-01-24T05:34:29;6.68;;;4.82;;
49948;SDS011;35840;45.982;8.890;2023-01-24T05:36:56;7.45;;;4.90;;
49948;SDS011;35840;45.982;8.890;2023-01-24T05:39:23;7.05;;;4.55;;
49948;SDS011;35840;45.982;8.890;2023-01-24T05:41:52;6.70;;;4.50;;
49948;SDS011;35840;45.982;8.890;2023-01-24T05:44:24;9.43;;;5.22;;
49948;SDS011;35840;45.982;8.890;2023-01-24T05:46:51;10.57;;;6.07;;
49948;SDS011;35840;45.982;8.890;2023-01-24T05:49:25;9.27;;;5.00;;
49948;SDS011;35840;45.982;8.890;2023-01-24T05:51:56;9.13;;;4.97;;
49948;SDS011;35840;45.982;8.890;2023-01-24T05:54:43;7.13;;;4.85;;
49948;SDS011;35840;45.982;8.890;2023-01-24T05:57:28;6.93;;;5.28;;
49948;SDS011;35840;45.982;8.890;2023-01-24T06:00:17;8.05;;;5.07;;
49948;SDS011;35840;45.982;8.890;2023-01-24T06:03:08;9.25;;;4.90;;
49948;SDS011;35840;45.982;8.890;2023-01-24T06:05:35;7.55;;;4.40;;
49948;SDS011;35840;45.982;8.890;2023-01-24T06:08:02;6.80;;;4.07;;
49948;SDS011;35840;45.982;8.890;2023-01-24T06:10:29;7.18;;;3.92;;
49948;SDS011;35840;45.982;8.890;2023-01-24T06:13:09;11.55;;;5.30;;
49948;SDS011;35840;45.982;8.890;2023-01-24T06:15:36;7.85;;;4.47;;
49948;SDS011;35840;45.982;8.890;2023-01-24T06:18:06;7.95;;;4.40;;
49948;SDS011;35840;45.982;8.890;2023-01-24T06:20:37;10.18;;;6.05;;
49948;SDS011;35840;45.982;8.890;2023-01-24T06:23:04;13.55;;;5.55;;
49948;SDS011;35840;45.982;8.890;2023-01-24T06:28:07;8.32;;;4.90;;
49948;SDS011;35840;45.982;8.890;2023-01-24T06:30:35;10.75;;;5.63;;
49948;SDS011;35840;45.982;8.890;2023-01-24T06:36:18;6.60;;;3.92;;
49948;SDS011;35840;45.982;8.890;2023-01-24T06:38:48;7.25;;;4.15;;
49948;SDS011;35840;45.982;8.890;2023-01-24T06:41:16;9.27;;;4.57;;
49948;SDS011;35840;45.982;8.890;2023-01-24T06:43:43;7.47;;;4.20;;
49948;SDS011;35840;45.982;8.890;2023-01-24T06:46:11;8.60;;;3.72;;
49948;SDS011;35840;45.982;8.890;2023-01-24T06:48:41;5.10;;;3.38;;
49948;SDS011;35840;45.982;8.890;2023-01-24T06:51:10;4.60;;;2.97;;
49948;SDS011;35840;45.982;8.890;2023-01-24T06:53:40;4.53;;;2.85;;
49948;SDS011;35840;45.982;8.890;2023-01-24T06:56:07;5.70;;;3.00;;
49948;SDS011;35840;45.982;8.890;2023-01-24T06:58:34;4.53;;;2.83;;
49948;SDS011;35840;45.982;8.890;2023-01-24T07:01:02;4.65;;;2.85;;
49948;SDS011;35840;45.982;8.890;2023-01-24T07:03:29;6.45;;;3.03;;
49948;SDS011;35840;45.982;8.890;2023-01-24T07:05:56;5.88;;;3.35;;
49948;SDS011;35840;45.982;8.890;2023-01-24T07:08:23;6.13;;;3.03;;
49948;SDS011;35840;45.982;8.890;2023-01-24T07:10:51;5.07;;;2.78;;
49948;SDS011;35840;45.982;8.890;2023-01-24T07:13:17;4.43;;;2.83;;
49948;SDS011;35840;45.982;8.890;2023-01-24T07:15:44;5.28;;;2.33;;
49948;SDS011;35840;45.982;8.890;2023-01-24T07:18:11;5.00;;;2.78;;
49948;SDS011;35840;45.982;8.890;2023-01-24T07:20:39;5.57;;;2.95;;
49948;SDS011;35840;45.982;8.890;2023-01-24T07:23:12;7.18;;;3.00;;
49948;SDS011;35840;45.982;8.890;2023-01-24T07:25:46;4.47;;;2.53;;
49948;SDS011;35840;45.982;8.890;2023-01-24T07:28:13;5.82;;;2.97;;
49948;SDS011;35840;45.982;8.890;2023-01-24T07:30:40;3.85;;;2.20;;
49948;SDS011;35840;45.982;8.890;2023-01-24T07:33:07;3.10;;;2.10;;
49948;SDS011;35840;45.982;8.890;2023-01-24T07:35:34;3.28;;;2.25;;
49948;SDS011;35840;45.982;8.890;2023-01-24T07:38:01;5.82;;;3.38;;
49948;SDS011;35840;45.982;8.890;2023-01-24T07:40:27;5.88;;;2.70;;
49948;SDS011;35840;45.982;8.890;2023-01-24T07:42:54;4.78;;;2.80;;
49948;SDS011;35840;45.982;8.890;2023-01-24T07:45:21;5.35;;;2.65;;
49948;SDS011;35840;45.982;8.890;2023-01-24T07:47:48;5.22;;;3.15;;
49948;SDS011;35840;45.982;8.890;2023-01-24T07:50:15;14.05;;;4.63;;
49948;SDS011;35840;45.982;8.890;2023-01-24T07:52:42;14.57;;;4.95;;
49948;SDS011;35840;45.982;8.890;2023-01-24T07:55:09;11.55;;;5.55;;
49948;SDS011;35840;45.982;8.890;2023-01-24T07:57:36;12.00;;;5.05;;
49948;SDS011;35840;45.982;8.890;2023-01-24T08:00:02;9.57;;;4.80;;
49948;SDS011;35840;45.982;8.890;2023-01-24T08:02:36;8.07;;;4.65;;
49948;SDS011;35840;45.982;8.890;2023-01-24T08:05:03;10.35;;;5.15;;
49948;SDS011;35840;45.982;8.890;2023-01-24T08:07:30;9.32;;;4.88;;
49948;SDS011;35840;45.982;8.890;2023-01-24T08:09:57;10.90;;;4.88;;
49948;SDS011;35840;45.982;8.890;2023-01-24T08:12:24;10.00;;;4.60;;
49948;SDS011;35840;45.982;8.890;2023-01-24T08:14:51;9.90;;;5.32;;
49948;SDS011;35840;45.982;8.890;2023-01-24T08:17:17;10.18;;;6.40;;
49948;SDS011;35840;45.982;8.890;2023-01-24T08:19:44;9.05;;;5.15;;
49948;SDS011;35840;45.982;8.890;2023-01-24T08:22:22;16.02;;;6.38;;
49948;SDS011;35840;45.982;8.890;2023-01-24T08:24:49;15.32;;;6.05;;
49948;SDS011;35840;45.982;8.890;2023-01-24T08:27:16;15.52;;;6.20;;
49948;SDS011;35840;45.982;8.890;2023-01-24T08:29:43;9.07;;;5.05;;
49948;SDS011;35840;45.982;8.890;2023-01-24T08:32:10;12.90;;;5.50;;
49948;SDS011;35840;45.982;8.890;2023-01-24T08:34:36;16.90;;;5.05;;
49948;SDS011;35840;45.982;8.890;2023-01-24T08:37:03;7.65;;;4.15;;
49948;SDS011;35840;45.982;8.890;2023-01-24T08:39:30;7.10;;;4.10;;
49948;SDS011;35840;45.982;8.890;2023-01-24T08:41:57;7.38;;;4.22;;
49948;SDS011;35840;45.982;8.890;2023-01-24T08:44:23;7.03;;;3.92;;
49948;SDS011;35840;45.982;8.890;2023-01-24T08:46:50;6.43;;;3.92;;
49948;SDS011;35840;45.982;8.890;2023-01-24T08:49:17;8.02;;;3.28;;
49948;SDS011;35840;45.982;8.890;2023-01-24T08:51:43;7.80;;;4.32;;
49948;SDS011;35840;45.982;8.890;2023-01-24T08:54:11;9.95;;;4.15;;
49948;SDS011;35840;45.982;8.890;2023-01-24T08:56:38;7.88;;;3.70;;
49948;SDS011;35840;45.982;8.890;2023-01-24T08:59:04;8.05;;;3.45;;
49948;SDS011;35840;45.982;8.890;2023-01-24T09:01:31;6.00;;;3.58;;
49948;SDS011;35840;45.982;8.890;2023-01-24T09:03:59;7.32;;;4.38;;
49948;SDS011;35840;45.982;8.890;2023-01-24T09:06:26;7.20;;;3.60;;
49948;SDS011;35840;45.982;8.890;2023-01-24T09:08:53;5.55;;;2.90;;
49948;SDS011;35840;45.982;8.890;2023-01-24T09:11:21;5.22;;;2.97;;
49948;SDS011;35840;45.982;8.890;2023-01-24T09:13:48;5.53;;;2.72;;
49948;SDS011;35840;45.982;8.890;2023-01-24T09:16:15;3.78;;;2.60;;
49948;SDS011;35840;45.982;8.890;2023-01-24T09:18:42;5.20;;;3.47;;
49948;SDS011;35840;45.982;8.890;2023-01-24T09:21:09;4.75;;;3.28;;
49948;SDS011;35840;45.982;8.890;2023-01-24T09:23:36;3.72;;;2.47;;
49948;SDS011;35840;45.982;8.890;2023-01-24T09:26:03;5.03;;;2.85;;
49948;SDS011;35840;45.982;8.890;2023-01-24T09:28:29;4.32;;;2.97;;
49948;SDS011;35840;45.982;8.890;2023-01-24T09:30:56;3.47;;;2.80;;
49948;SDS011;35840;45.982;8.890;2023-01-24T09:33:23;4.10;;;2.50;;
49948;SDS011;35840;45.982;8.890;2023-01-24T09:35:51;5.05;;;2.75;;
49948;SDS011;35840;45.982;8.890;2023-01-24T09:38:25;4.43;;;2.70;;
49948;SDS011;35840;45.982;8.890;2023-01-24T09:43:53;4.22;;;2.55;;
49948;SDS011;35840;45.982;8.890;2023-01-24T09:46:30;2.90;;;2.10;;
49948;SDS011;35840;45.982;8.890;2023-01-24T09:49:02;4.05;;;2.30;;
49948;SDS011;35840;45.982;8.890;2023-01-24T09:51:30;4.07;;;2.40;;
49948;SDS011;35840;45.982;8.890;2023-01-24T09:53:59;3.63;;;2.70;;
49948;SDS011;35840;45.982;8.890;2023-01-24T09:56:30;4.22;;;3.20;;
49948;SDS011;35840;45.982;8.890;2023-01-24T10:02:20;4.30;;;2.65;;
49948;SDS011;35840;45.982;8.890;2023-01-24T10:04:48;6.68;;;2.70;;
49948;SDS011;35840;45.982;8.890;2023-01-24T10:10:51;3.30;;;2.60;;
49948;SDS011;35840;45.982;8.890;2023-01-24T10:13:25;4.35;;;2.75;;
49948;SDS011;35840;45.982;8.890;2023-01-24T10:16:18;4.20;;;2.80;;
49948;SDS011;35840;45.982;8.890;2023-01-24T10:24:40;8.23;;;2.72;;
49948;SDS011;35840;45.982;8.890;2023-01-24T10:27:21;4.15;;;2.63;;
49948;SDS011;35840;45.982;8.890;2023-01-24T10:29:55;3.65;;;2.58;;
49948;SDS011;35840;45.982;8.890;2023-01-24T10:32:30;5.15;;;2.97;;
49948;SDS011;35840;45.982;8.890;2023-01-24T10:35:01;5.20;;;3.10;;
49948;SDS011;35840;45.982;8.890;2023-01-24T10:37:38;3.60;;;2.60;;
49948;SDS011;35840;45.982;8.890;2023-01-24T10:40:10;3.67;;;2.50;;
49948;SDS011;35840;45.982;8.890;2023-01-24T10:42:43;9.70;;;3.25;;
49948;SDS011;35840;45.982;8.890;2023-01-24T10:47:54;2.75;;;1.88;;
49948;SDS011;35840;45.982;8.890;2023-01-24T10:50:32;3.67;;;2.47;;
49948;SDS011;35840;45.982;8.890;2023-01-24T10:53:14;2.25;;;1.77;;
49948;SDS011;35840;45.982;8.890;2023-01-24T10:55:57;2.08;;;1.77;;
49948;SDS011;35840;45.982;8.890;2023-01-24T10:58:26;2.88;;;2.00;;
49948;SDS011;35840;45.982;8.890;2023-01-24T11:01:16;2.53;;;1.95;;
49948;SDS011;35840;45.982;8.890;2023-01-24T11:03:46;2.83;;;2.22;;
49948;SDS011;35840;45.982;8.890;2023-01-24T11:06:23;2.13;;;1.88;;
49948;SDS011;35840;45.982;8.890;2023-01-24T11:09:09;3.25;;;2.00;;
49948;SDS011;35840;45.982;8.890;2023-01-24T11:11:45;3.33;;;2.10;;
49948;SDS011;35840;45.982;8.890;2023-01-24T11:14:17;3.28;;;2.47;;
49948;SDS011;35840;45.982;8.890;2023-01-24T11:16:48;3.03;;;2.28;;
49948;SDS011;35840;45.982;8.890;2023-01-24T11:24:47;5.43;;;2.70;;
49948;SDS011;35840;45.982;8.890;2023-01-24T11:27:17;3.28;;;2.13;;
49948;SDS011;35840;45.982;8.890;2023-01-24T11:32:43;4.35;;;2.35;;
49948;SDS011;35840;45.982;8.890;2023-01-24T11:35:15;3.25;;;2.08;;
49948;SDS011;35840;45.982;8.890;2023-01-24T11:38:04;2.22;;;1.92;;
49948;SDS011;35840;45.982;8.890;2023-01-24T11:46:22;2.30;;;2.08;;
49948;SDS011;35840;45.982;8.890;2023-01-24T11:52:04;2.40;;;2.05;;
49948;SDS011;35840;45.982;8.890;2023-01-24T11:54:57;2.40;;;1.85;;
49948;SDS011;35840;45.982;8.890;2023-01-24T11:57:44;4.45;;;1.88;;
49948;SDS011;35840;45.982;8.890;2023-01-24T12:03:16;3.22;;;1.70;;
49948;SDS011;35840;45.982;8.890;2023-01-24T12:05:54;4.78;;;2.13;;
49948;SDS011;35840;45.982;8.890;2023-01-24T12:11:15;3.38;;;1.50;;
49948;SDS011;35840;45.982;8.890;2023-01-24T12:19:57;4.60;;;1.77;;
49948;SDS011;35840;45.982;8.890;2023-01-24T12:22:31;2.72;;;1.95;;
49948;SDS011;35840;45.982;8.890;2023-01-24T12:25:04;3.70;;;1.73;;
49948;SDS011;35840;45.982;8.890;2023-01-24T12:27:50;3.22;;;1.80;;
49948;SDS011;35840;45.982;8.890;2023-01-24T12:30:40;2.47;;;1.92;;
49948;SDS011;35840;45.982;8.890;2023-01-24T12:33:21;2.13;;;1.80;;
49948;SDS011;35840;45.982;8.890;2023-01-24T12:36:03;3.88;;;1.60;;
49948;SDS011;35840;45.982;8.890;2023-01-24T12:52:41;2.90;;;1.15;;
49948;SDS011;35840;45.982;8.890;2023-01-24T12:55:28;1.77;;;1.23;;
49948;SDS011;35840;45.982;8.890;2023-01-24T12:58:18;1.85;;;0.95;;
49948;SDS011;35840;45.982;8.890;2023-01-24T13:06:07;2.88;;;1.10;;
49948;SDS011;35840;45.982;8.890;2023-01-24T13:09:06;1.48;;;0.82;;
49948;SDS011;35840;45.982;8.890;2023-01-24T13:11:45;1.60;;;1.27;;
49948;SDS011;35840;45.982;8.890;2023-01-24T13:22:38;1.33;;;1.17;;
49948;SDS011;35840;45.982;8.890;2023-01-24T13:31:09;1.80;;;1.00;;
49948;SDS011;35840;45.982;8.890;2023-01-24T13:33:58;1.33;;;1.15;;
49948;SDS011;35840;45.982;8.890;2023-01-24T13:36:31;1.25;;;1.00;;
49948;SDS011;35840;45.982;8.890;2023-01-24T13:39:00;2.22;;;1.00;;
49948;SDS011;35840;45.982;8.890;2023-01-24T13:41:32;3.50;;;0.90;;
49948;SDS011;35840;45.982;8.890;2023-01-24T13:44:01;1.38;;;1.10;;
49948;SDS011;35840;45.982;8.890;2023-01-24T13:50:24;1.08;;;0.70;;
49948;SDS011;35840;45.982;8.890;2023-01-24T13:52:40;1.48;;;1.10;;
49948;SDS011;35840;45.982;8.890;2023-01-24T13:57:46;1.20;;;0.95;;
49948;SDS011;35840;45.982;8.890;2023-01-24T14:10:49;2.60;;;1.38;;
49948;SDS011;35840;45.982;8.890;2023-01-24T14:18:51;4.63;;;1.23;;
49948;SDS011;35840;45.982;8.890;2023-01-24T14:21:30;9.52;;;1.60;;
49948;SDS011;35840;45.982;8.890;2023-01-24T14:24:15;1.70;;;1.17;;
49948;SDS011;35840;45.982;8.890;2023-01-24T14:26:50;3.38;;;1.38;;
49948;SDS011;35840;45.982;8.890;2023-01-24T14:29:18;1.77;;;1.38;;
49948;SDS011;35840;45.982;8.890;2023-01-24T14:31:49;2.90;;;1.50;;
49948;SDS011;35840;45.982;8.890;2023-01-24T14:37:10;3.10;;;1.70;;
49948;SDS011;35840;45.982;8.890;2023-01-24T14:39:38;2.10;;;1.27;;
49948;SDS011;35840;45.982;8.890;2023-01-24T14:42:12;2.50;;;1.60;;
49948;SDS011;35840;45.982;8.890;2023-01-24T14:44:49;3.35;;;2.20;;
49948;SDS011;35840;45.982;8.890;2023-01-24T14:49:52;3.13;;;1.80;;
49948;SDS011;35840;45.982;8.890;2023-01-24T14:54:53;2.03;;;1.75;;
49948;SDS011;35840;45.982;8.890;2023-01-24T15:00:00;2.10;;;1.90;;
49948;SDS011;35840;45.982;8.890;2023-01-24T15:02:40;4.45;;;2.33;;
49948;SDS011;35840;45.982;8.890;2023-01-24T15:05:29;4.22;;;1.98;;
49948;SDS011;35840;45.982;8.890;2023-01-24T15:08:05;2.38;;;1.85;;
49948;SDS011;35840;45.982;8.890;2023-01-24T15:10:37;2.72;;;1.60;;
49948;SDS011;35840;45.982;8.890;2023-01-24T15:13:06;5.30;;;1.80;;
49948;SDS011;35840;45.982;8.890;2023-01-24T15:15:35;2.30;;;2.10;;
49948;SDS011;35840;45.982;8.890;2023-01-24T15:18:03;2.75;;;2.03;;
49948;SDS011;35840;45.982;8.890;2023-01-24T15:20:33;4.30;;;2.33;;
49948;SDS011;35840;45.982;8.890;2023-01-24T15:23:00;2.45;;;1.92;;
49948;SDS011;35840;45.982;8.890;2023-01-24T15:25:36;3.55;;;2.25;;
49948;SDS011;35840;45.982;8.890;2023-01-24T15:30:36;2.55;;;1.60;;
49948;SDS011;35840;45.982;8.890;2023-01-24T15:33:10;3.50;;;2.17;;
49948;SDS011;35840;45.982;8.890;2023-01-24T15:35:39;5.63;;;2.08;;
49948;SDS011;35840;45.982;8.890;2023-01-24T15:38:30;1.90;;;1.70;;
49948;SDS011;35840;45.982;8.890;2023-01-24T15:43:37;2.50;;;1.60;;
49948;SDS011;35840;45.982;8.890;2023-01-24T15:54:30;5.03;;;2.10;;
49948;SDS011;35840;45.982;8.890;2023-01-24T15:56:58;2.90;;;1.70;;
49948;SDS011;35840;45.982;8.890;2023-01-24T15:59:28;2.83;;;1.85;;
49948;SDS011;35840;45.982;8.890;2023-01-24T16:01:55;5.78;;;2.20;;
49948;SDS011;35840;45.982;8.890;2023-01-24T16:04:22;5.15;;;1.83;;
49948;SDS011;35840;45.982;8.890;2023-01-24T16:06:49;3.78;;;2.00;;
49948;SDS011;35840;45.982;8.890;2023-01-24T16:09:16;5.28;;;1.90;;
49948;SDS011;35840;45.982;8.890;2023-01-24T16:11:44;3.90;;;2.03;;
49948;SDS011;35840;45.982;8.890;2023-01-24T16:14:18;2.72;;;1.85;;
49948;SDS011;35840;45.982;8.890;2023-01-24T16:16:47;3.42;;;1.95;;
49948;SDS011;35840;45.982;8.890;2023-01-24T16:19:19;2.58;;;1.73;;
49948;SDS011;35840;45.982;8.890;2023-01-24T16:21:48;2.58;;;1.90;;
49948;SDS011;35840;45.982;8.890;2023-01-24T16:24:15;2.88;;;1.75;;
49948;SDS011;35840;45.982;8.890;2023-01-24T16:26:49;2.05;;;1.60;;
49948;SDS011;35840;45.982;8.890;2023-01-24T16:29:23;3.70;;;2.22;;
49948;SDS011;35840;45.982;8.890;2023-01-24T16:31:54;2.63;;;2.20;;
49948;SDS011;35840;45.982;8.890;2023-01-24T16:34:21;2.75;;;2.35;;
49948;SDS011;35840;45.982;8.890;2023-01-24T16:36:48;3.80;;;2.50;;
49948;SDS011;35840;45.982;8.890;2023-01-24T16:39:16;3.28;;;2.38;;
49948;SDS011;35840;45.982;8.890;2023-01-24T16:41:45;10.65;;;2.50;;
49948;SDS011;35840;45.982;8.890;2023-01-24T16:44:12;6.32;;;3.20;;
49948;SDS011;35840;45.982;8.890;2023-01-24T16:46:40;5.60;;;3.00;;
49948;SDS011;35840;45.982;8.890;2023-01-24T16:49:14;4.30;;;2.83;;
49948;SDS011;35840;45.982;8.890;2023-01-24T16:51:45;5.38;;;2.40;;
49948;SDS011;35840;45.982;8.890;2023-01-24T16:54:13;5.00;;;2.55;;
49948;SDS011;35840;45.982;8.890;2023-01-24T16:56:41;3.67;;;2.33;;
49948;SDS011;35840;45.982;8.890;2023-01-24T16:59:09;5.10;;;2.50;;
49948;SDS011;35840;45.982;8.890;2023-01-24T17:01:35;3.60;;;2.88;;
49948;SDS011;35840;45.982;8.890;2023-01-24T17:04:03;4.38;;;3.35;;
49948;SDS011;35840;45.982;8.890;2023-01-24T17:06:30;7.72;;;3.63;;
49948;SDS011;35840;45.982;8.890;2023-01-24T17:08:57;7.57;;;3.63;;
49948;SDS011;35840;45.982;8.890;2023-01-24T17:11:24;5.80;;;3.17;;
49948;SDS011;35840;45.982;8.890;2023-01-24T17:13:50;4.63;;;2.92;;
49948;SDS011;35840;45.982;8.890;2023-01-24T17:16:17;6.43;;;2.90;;
49948;SDS011;35840;45.982;8.890;2023-01-24T17:18:44;4.70;;;3.00;;
49948;SDS011;35840;45.982;8.890;2023-01-24T17:21:12;7.22;;;4.43;;
49948;SDS011;35840;45.982;8.890;2023-01-24T17:23:41;5.78;;;3.60;;
49948;SDS011;35840;45.982;8.890;2023-01-24T17:26:12;5.97;;;3.97;;
49948;SDS011;35840;45.982;8.890;2023-01-24T17:28:41;5.15;;;3.15;;
49948;SDS011;35840;45.982;8.890;2023-01-24T17:31:10;5.13;;;3.30;;
49948;SDS011;35840;45.982;8.890;2023-01-24T17:33:38;4.57;;;2.88;;
49948;SDS011;35840;45.982;8.890;2023-01-24T17:36:06;11.45;;;6.13;;